CDT,Max TemperatureF,Mean TemperatureF,Min TemperatureF,Max Dew PointF,MeanDew PointF,Min DewpointF,Max Humidity, Mean Humidity, Min Humidity, Max Sea Level PressureIn, Mean Sea Level PressureIn, Min Sea Level PressureIn, Max VisibilityMiles, Mean VisibilityMiles, Min VisibilityMiles, Max Wind SpeedMPH, Mean Wind SpeedMPH, Max Gust SpeedMPH,PrecipitationIn, CloudCover, Events, WindDirDegrees
2010-10-1,79,64,48,56,48,44,100,65,30,30.20,30.13,30.03,10,10,7,26,5,33,0.00,1,Fog,229
2010-10-2,63,53,43,46,40,34,86,60,34,30.43,30.36,30.19,10,10,10,18,9,23,0.00,1,,8
2010-10-3,62,51,40,39,35,33,86,60,34,30.48,30.41,30.32,10,10,10,12,5,16,0.00,0,,148
2010-10-4,67,54,41,40,38,35,82,57,32,30.39,30.32,30.24,10,10,10,22,11,29,0.00,0,,163
2010-10-5,75,61,46,47,44,40,82,58,33,30.32,30.27,30.20,10,10,7,21,11,25,0.00,0,,162
2010-10-6,79,65,50,56,48,40,83,63,42,30.22,30.18,30.12,10,10,10,16,8,18,0.00,0,,5
2010-10-7,75,59,43,50,41,34,89,56,23,30.29,30.20,30.10,10,10,10,9,4,13,0.00,0,,184
2010-10-8,90,72,53,55,50,44,71,49,26,30.09,29.98,29.88,10,10,10,20,9,24,0.00,0,,163
2010-10-9,83,69,55,54,51,48,77,54,31,29.95,29.92,29.86,10,10,10,15,7,18,0.00,2,,157
2010-10-10,79,66,52,57,51,47,93,63,32,29.97,29.90,29.85,10,10,10,18,3,22,T,5,,189
2010-10-11,74,66,58,58,54,51,90,70,49,29.90,29.88,29.84,10,10,10,15,3,17,T,6,Rain,334
2010-10-12,75,63,51,57,51,41,100,72,44,30.24,30.05,29.90,10,10,8,25,9,30,0.00,2,Fog,340
2010-10-13,70,56,41,42,37,27,82,51,20,30.36,30.30,30.25,10,10,10,20,6,25,0.00,2,,342
2010-10-14,77,59,41,41,37,32,86,54,21,30.29,30.13,30.00,10,10,10,21,8,30,0.00,0,,228
2010-10-15,71,55,39,43,39,35,100,65,29,30.19,30.09,29.99,10,10,10,18,6,22,0.00,0,,170
2010-10-16,75,61,46,46,40,30,74,50,26,30.17,30.04,29.94,10,10,10,22,10,26,0.00,1,,3
2010-10-17,68,53,37,36,31,25,82,51,20,30.23,30.13,30.01,10,10,10,13,6,15,0.00,2,,33
2010-10-18,64,52,40,42,36,32,92,62,32,30.12,30.08,30.03,10,10,10,13,5,15,0.00,5,,355
2010-10-19,68,53,37,41,36,32,93,60,26,30.10,30.02,29.90,10,10,10,15,5,21,0.00,4,Fog,195
2010-10-20,75,58,41,45,37,29,89,54,19,30.00,29.95,29.89,10,10,10,21,5,26,0.00,1,,293
2010-10-21,66,52,38,38,32,24,85,54,22,30.14,30.06,30.00,10,10,10,10,4,13,0.00,0,,65
2010-10-22,75,60,45,56,43,31,78,58,38,30.00,29.90,29.81,10,10,10,22,11,29,T,4,Rain,155
2010-10-23,76,68,60,61,58,53,97,74,50,29.80,29.71,29.61,10,10,10,26,13,32,0.00,6,,159
2010-10-24,63,56,49,54,53,49,89,81,72,29.63,29.61,29.57,10,10,10,16,8,21,T,6,Rain,223
2010-10-25,71,60,49,56,52,47,96,75,53,29.55,29.19,29.00,10,10,10,26,15,32,0.03,7,Rain,184
2010-10-26,62,55,47,47,38,29,86,59,32,29.47,29.26,29.08,10,10,10,39,19,52,0.13,6,Rain,268
2010-10-27,54,46,37,34,30,25,70,51,32,30.19,29.79,29.49,10,10,10,41,21,51,T,3,Rain,281
2010-10-28,54,43,31,29,24,16,78,50,22,30.46,30.38,30.20,10,10,10,24,11,33,0.00,3,,318
2010-10-29,70,51,31,34,28,23,75,49,22,30.44,30.16,29.90,10,10,10,28,13,35,0.00,2,,172
2010-10-30,71,56,41,38,35,32,73,50,26,30.07,29.93,29.85,10,10,10,16,7,20,0.00,3,,21
2010-10-31,52,45,37,35,34,32,92,71,50,30.27,30.17,30.10,10,10,10,17,7,21,0.00,6,,58